ENML/MOL METAR and TAF weather

Enter ICAO airport designator
Station Type Date Time Source
ENML METAR 2020/03/29 21:20 UTC NOAA

ENML 292120Z AUTO VRB02KT 9999NDV -SHRA SCT010/// BKN068/// BKN084/// 01/M00 Q1028


Station Type Date Time Source
ENML Decoded METAR 2020/03/29 21:20 UTC NOAA

Molde / Aro, Norway (ENML) 62-45N 007-16E 3M
Mar 29, 2020 - 05:20 PM EDT / 2020.03.29 2120 UTC
Wind: Variable at 2 MPH (2 KT):0
Sky conditions: mostly cloudy
Weather: light rain showers
Temperature: 33 F (1 C)
Dew Point: 32 F (0 C)
Relative Humidity: 93%
Pressure (altimeter): 30.36 in. Hg (1028 hPa)
ob: ENML 292120Z AUTO VRB02KT 9999NDV -SHRA SCT010/// BKN068/// BKN084/// 01/M00 Q1028
cycle: 21

Station Type Date Time Source
ENML TAF UTC NOAA

Error!

Example: see airport list